sensor_id;sensor_type;location;lat;lon;timestamp;P1;durP1;ratioP1;P2;durP2;ratioP2
65174;SDS011;51761;42.126;24.752;2024-03-29T00:01:55;36.38;;;4.95;;
65174;SDS011;51761;42.126;24.752;2024-03-29T00:04:20;28.27;;;5.43;;
65174;SDS011;51761;42.126;24.752;2024-03-29T00:06:45;27.95;;;5.90;;
65174;SDS011;51761;42.126;24.752;2024-03-29T00:09:10;30.10;;;4.85;;
65174;SDS011;51761;42.126;24.752;2024-03-29T00:11:36;18.30;;;4.03;;
65174;SDS011;51761;42.126;24.752;2024-03-29T00:14:01;38.58;;;4.40;;
65174;SDS011;51761;42.126;24.752;2024-03-29T00:16:27;21.35;;;4.20;;
65174;SDS011;51761;42.126;24.752;2024-03-29T00:18:52;32.22;;;5.47;;
65174;SDS011;51761;42.126;24.752;2024-03-29T00:21:17;26.70;;;4.25;;
65174;SDS011;51761;42.126;24.752;2024-03-29T00:23:43;27.48;;;4.35;;
65174;SDS011;51761;42.126;24.752;2024-03-29T00:26:10;21.77;;;4.28;;
65174;SDS011;51761;42.126;24.752;2024-03-29T00:28:35;23.73;;;4.05;;
65174;SDS011;51761;42.126;24.752;2024-03-29T00:31:01;22.35;;;4.28;;
65174;SDS011;51761;42.126;24.752;2024-03-29T00:33:26;21.35;;;4.50;;
65174;SDS011;51761;42.126;24.752;2024-03-29T00:35:51;28.88;;;4.43;;
65174;SDS011;51761;42.126;24.752;2024-03-29T00:38:16;23.65;;;4.50;;
65174;SDS011;51761;42.126;24.752;2024-03-29T00:40:42;17.95;;;3.45;;
65174;SDS011;51761;42.126;24.752;2024-03-29T00:43:07;20.88;;;4.38;;
65174;SDS011;51761;42.126;24.752;2024-03-29T00:45:32;24.10;;;3.53;;
65174;SDS011;51761;42.126;24.752;2024-03-29T00:47:58;29.88;;;4.53;;
65174;SDS011;51761;42.126;24.752;2024-03-29T00:50:23;22.45;;;3.20;;
65174;SDS011;51761;42.126;24.752;2024-03-29T00:52:48;24.42;;;4.70;;
65174;SDS011;51761;42.126;24.752;2024-03-29T00:55:14;17.70;;;4.30;;
65174;SDS011;51761;42.126;24.752;2024-03-29T00:57:39;21.52;;;4.45;;
65174;SDS011;51761;42.126;24.752;2024-03-29T01:00:05;19.05;;;4.28;;
65174;SDS011;51761;42.126;24.752;2024-03-29T01:02:30;27.27;;;5.10;;
65174;SDS011;51761;42.126;24.752;2024-03-29T01:04:55;23.23;;;4.13;;
65174;SDS011;51761;42.126;24.752;2024-03-29T01:07:21;35.25;;;4.93;;
65174;SDS011;51761;42.126;24.752;2024-03-29T01:09:47;22.40;;;4.20;;
65174;SDS011;51761;42.126;24.752;2024-03-29T01:12:12;23.55;;;3.88;;
65174;SDS011;51761;42.126;24.752;2024-03-29T01:14:37;29.60;;;4.50;;
65174;SDS011;51761;42.126;24.752;2024-03-29T01:17:03;25.80;;;4.22;;
65174;SDS011;51761;42.126;24.752;2024-03-29T01:19:28;19.88;;;3.72;;
65174;SDS011;51761;42.126;24.752;2024-03-29T01:21:53;16.02;;;3.10;;
65174;SDS011;51761;42.126;24.752;2024-03-29T01:24:19;22.88;;;3.30;;
65174;SDS011;51761;42.126;24.752;2024-03-29T01:26:44;15.43;;;3.05;;
65174;SDS011;51761;42.126;24.752;2024-03-29T01:29:09;17.85;;;2.95;;
65174;SDS011;51761;42.126;24.752;2024-03-29T01:31:36;17.02;;;2.92;;
65174;SDS011;51761;42.126;24.752;2024-03-29T01:34:01;14.73;;;2.85;;
65174;SDS011;51761;42.126;24.752;2024-03-29T01:36:28;14.45;;;2.55;;
65174;SDS011;51761;42.126;24.752;2024-03-29T01:38:53;13.57;;;2.42;;
65174;SDS011;51761;42.126;24.752;2024-03-29T01:41:21;17.33;;;2.90;;
65174;SDS011;51761;42.126;24.752;2024-03-29T01:43:48;22.23;;;2.65;;
65174;SDS011;51761;42.126;24.752;2024-03-29T01:46:13;14.23;;;3.10;;
65174;SDS011;51761;42.126;24.752;2024-03-29T01:48:39;15.10;;;2.40;;
65174;SDS011;51761;42.126;24.752;2024-03-29T01:51:04;7.28;;;2.20;;
65174;SDS011;51761;42.126;24.752;2024-03-29T01:53:29;16.05;;;2.90;;
65174;SDS011;51761;42.126;24.752;2024-03-29T01:55:56;13.48;;;2.30;;
65174;SDS011;51761;42.126;24.752;2024-03-29T01:58:22;12.27;;;2.55;;
65174;SDS011;51761;42.126;24.752;2024-03-29T02:00:52;14.38;;;2.55;;
65174;SDS011;51761;42.126;24.752;2024-03-29T02:03:18;10.45;;;2.63;;
65174;SDS011;51761;42.126;24.752;2024-03-29T02:05:43;15.77;;;2.75;;
65174;SDS011;51761;42.126;24.752;2024-03-29T02:08:10;18.65;;;2.78;;
65174;SDS011;51761;42.126;24.752;2024-03-29T02:10:35;15.23;;;2.60;;
65174;SDS011;51761;42.126;24.752;2024-03-29T02:13:01;16.88;;;3.35;;
65174;SDS011;51761;42.126;24.752;2024-03-29T02:15:27;29.65;;;3.63;;
65174;SDS011;51761;42.126;24.752;2024-03-29T02:17:53;14.38;;;2.97;;
65174;SDS011;51761;42.126;24.752;2024-03-29T02:20:18;22.42;;;4.05;;
65174;SDS011;51761;42.126;24.752;2024-03-29T02:22:47;16.65;;;3.38;;
65174;SDS011;51761;42.126;24.752;2024-03-29T02:25:13;18.73;;;3.47;;
65174;SDS011;51761;42.126;24.752;2024-03-29T02:27:39;21.13;;;4.18;;
65174;SDS011;51761;42.126;24.752;2024-03-29T02:30:04;19.13;;;3.83;;
65174;SDS011;51761;42.126;24.752;2024-03-29T02:32:30;16.65;;;4.07;;
65174;SDS011;51761;42.126;24.752;2024-03-29T02:34:55;18.42;;;3.58;;
65174;SDS011;51761;42.126;24.752;2024-03-29T02:37:21;11.20;;;2.97;;
65174;SDS011;51761;42.126;24.752;2024-03-29T02:39:46;19.27;;;3.25;;
65174;SDS011;51761;42.126;24.752;2024-03-29T02:42:11;13.05;;;2.90;;
65174;SDS011;51761;42.126;24.752;2024-03-29T02:44:36;17.80;;;3.95;;
65174;SDS011;51761;42.126;24.752;2024-03-29T02:47:02;15.10;;;3.38;;
65174;SDS011;51761;42.126;24.752;2024-03-29T02:49:27;23.58;;;4.20;;
65174;SDS011;51761;42.126;24.752;2024-03-29T02:51:52;17.23;;;2.65;;
65174;SDS011;51761;42.126;24.752;2024-03-29T02:54:18;15.32;;;2.92;;
65174;SDS011;51761;42.126;24.752;2024-03-29T02:56:43;11.85;;;2.92;;
65174;SDS011;51761;42.126;24.752;2024-03-29T02:59:09;14.43;;;3.17;;
65174;SDS011;51761;42.126;24.752;2024-03-29T03:01:34;9.95;;;2.92;;
65174;SDS011;51761;42.126;24.752;2024-03-29T03:03:59;13.95;;;2.70;;
65174;SDS011;51761;42.126;24.752;2024-03-29T03:06:25;14.68;;;2.85;;
65174;SDS011;51761;42.126;24.752;2024-03-29T03:08:50;19.95;;;4.00;;
65174;SDS011;51761;42.126;24.752;2024-03-29T03:11:34;26.03;;;4.00;;
65174;SDS011;51761;42.126;24.752;2024-03-29T03:13:59;17.92;;;3.25;;
65174;SDS011;51761;42.126;24.752;2024-03-29T03:16:24;17.65;;;2.50;;
65174;SDS011;51761;42.126;24.752;2024-03-29T03:18:50;12.52;;;3.22;;
65174;SDS011;51761;42.126;24.752;2024-03-29T03:21:16;22.55;;;3.72;;
65174;SDS011;51761;42.126;24.752;2024-03-29T03:23:41;18.02;;;3.15;;
65174;SDS011;51761;42.126;24.752;2024-03-29T03:26:06;11.30;;;2.88;;
65174;SDS011;51761;42.126;24.752;2024-03-29T03:28:32;18.55;;;3.60;;
65174;SDS011;51761;42.126;24.752;2024-03-29T03:30:57;19.95;;;3.55;;
65174;SDS011;51761;42.126;24.752;2024-03-29T03:33:23;12.07;;;2.63;;
65174;SDS011;51761;42.126;24.752;2024-03-29T03:35:48;16.95;;;2.67;;
65174;SDS011;51761;42.126;24.752;2024-03-29T03:38:14;11.10;;;2.30;;
65174;SDS011;51761;42.126;24.752;2024-03-29T03:40:40;14.50;;;2.65;;
65174;SDS011;51761;42.126;24.752;2024-03-29T03:43:06;11.63;;;2.80;;
65174;SDS011;51761;42.126;24.752;2024-03-29T03:45:34;17.83;;;3.78;;
65174;SDS011;51761;42.126;24.752;2024-03-29T03:48:01;12.60;;;2.90;;
65174;SDS011;51761;42.126;24.752;2024-03-29T03:50:26;33.63;;;3.20;;
65174;SDS011;51761;42.126;24.752;2024-03-29T03:52:51;14.88;;;3.10;;
65174;SDS011;51761;42.126;24.752;2024-03-29T03:55:16;10.13;;;3.20;;
65174;SDS011;51761;42.126;24.752;2024-03-29T03:57:42;15.68;;;2.72;;
65174;SDS011;51761;42.126;24.752;2024-03-29T04:00:07;14.45;;;2.95;;
65174;SDS011;51761;42.126;24.752;2024-03-29T04:02:34;14.52;;;2.78;;
65174;SDS011;51761;42.126;24.752;2024-03-29T04:04:59;11.10;;;2.05;;
65174;SDS011;51761;42.126;24.752;2024-03-29T04:07:25;12.15;;;2.42;;
65174;SDS011;51761;42.126;24.752;2024-03-29T04:09:50;19.25;;;3.67;;
65174;SDS011;51761;42.126;24.752;2024-03-29T04:12:16;6.13;;;1.88;;
65174;SDS011;51761;42.126;24.752;2024-03-29T04:14:41;8.70;;;2.05;;
65174;SDS011;51761;42.126;24.752;2024-03-29T04:17:06;6.72;;;1.83;;
65174;SDS011;51761;42.126;24.752;2024-03-29T04:19:32;11.45;;;1.95;;
65174;SDS011;51761;42.126;24.752;2024-03-29T04:21:57;5.95;;;2.17;;
65174;SDS011;51761;42.126;24.752;2024-03-29T04:24:22;10.60;;;1.77;;
65174;SDS011;51761;42.126;24.752;2024-03-29T04:26:47;8.43;;;1.88;;
65174;SDS011;51761;42.126;24.752;2024-03-29T04:29:13;12.95;;;1.98;;
65174;SDS011;51761;42.126;24.752;2024-03-29T04:31:39;7.50;;;1.80;;
65174;SDS011;51761;42.126;24.752;2024-03-29T04:34:05;14.48;;;2.20;;
65174;SDS011;51761;42.126;24.752;2024-03-29T04:36:30;11.98;;;1.55;;
65174;SDS011;51761;42.126;24.752;2024-03-29T04:38:56;9.80;;;1.65;;
65174;SDS011;51761;42.126;24.752;2024-03-29T04:41:21;6.88;;;2.08;;
65174;SDS011;51761;42.126;24.752;2024-03-29T04:43:47;8.82;;;2.03;;
65174;SDS011;51761;42.126;24.752;2024-03-29T04:46:13;7.03;;;2.20;;
65174;SDS011;51761;42.126;24.752;2024-03-29T04:48:38;12.00;;;1.77;;
65174;SDS011;51761;42.126;24.752;2024-03-29T04:51:04;8.30;;;1.70;;
65174;SDS011;51761;42.126;24.752;2024-03-29T04:53:30;8.00;;;2.15;;
65174;SDS011;51761;42.126;24.752;2024-03-29T04:55:56;11.93;;;1.75;;
65174;SDS011;51761;42.126;24.752;2024-03-29T04:58:25;11.70;;;1.90;;
65174;SDS011;51761;42.126;24.752;2024-03-29T05:00:50;9.10;;;1.83;;
65174;SDS011;51761;42.126;24.752;2024-03-29T05:03:19;10.48;;;1.85;;
65174;SDS011;51761;42.126;24.752;2024-03-29T05:05:45;11.15;;;2.00;;
65174;SDS011;51761;42.126;24.752;2024-03-29T05:08:10;6.40;;;1.92;;
65174;SDS011;51761;42.126;24.752;2024-03-29T05:10:35;7.60;;;2.10;;
65174;SDS011;51761;42.126;24.752;2024-03-29T05:13:01;11.27;;;2.10;;
65174;SDS011;51761;42.126;24.752;2024-03-29T05:15:27;15.45;;;1.52;;
65174;SDS011;51761;42.126;24.752;2024-03-29T05:17:52;15.10;;;2.17;;
65174;SDS011;51761;42.126;24.752;2024-03-29T05:20:18;13.50;;;2.20;;
65174;SDS011;51761;42.126;24.752;2024-03-29T05:22:43;6.03;;;1.80;;
65174;SDS011;51761;42.126;24.752;2024-03-29T05:25:09;7.15;;;2.13;;
65174;SDS011;51761;42.126;24.752;2024-03-29T05:27:34;11.57;;;2.47;;
65174;SDS011;51761;42.126;24.752;2024-03-29T05:29:59;11.70;;;1.85;;
65174;SDS011;51761;42.126;24.752;2024-03-29T05:32:25;11.32;;;2.20;;
65174;SDS011;51761;42.126;24.752;2024-03-29T05:34:50;7.63;;;1.90;;
65174;SDS011;51761;42.126;24.752;2024-03-29T05:37:15;12.80;;;2.22;;
65174;SDS011;51761;42.126;24.752;2024-03-29T05:39:43;7.28;;;2.00;;
65174;SDS011;51761;42.126;24.752;2024-03-29T05:42:08;7.95;;;2.38;;
65174;SDS011;51761;42.126;24.752;2024-03-29T05:44:35;11.90;;;2.22;;
65174;SDS011;51761;42.126;24.752;2024-03-29T05:47:00;7.22;;;2.10;;
65174;SDS011;51761;42.126;24.752;2024-03-29T05:49:26;5.13;;;2.00;;
65174;SDS011;51761;42.126;24.752;2024-03-29T05:51:51;9.98;;;2.20;;
65174;SDS011;51761;42.126;24.752;2024-03-29T05:54:17;14.88;;;2.53;;
65174;SDS011;51761;42.126;24.752;2024-03-29T05:56:42;12.20;;;2.92;;
65174;SDS011;51761;42.126;24.752;2024-03-29T05:59:07;10.02;;;2.42;;
65174;SDS011;51761;42.126;24.752;2024-03-29T06:01:33;17.42;;;2.58;;
65174;SDS011;51761;42.126;24.752;2024-03-29T06:03:58;10.32;;;2.55;;
65174;SDS011;51761;42.126;24.752;2024-03-29T06:06:29;9.13;;;2.00;;
65174;SDS011;51761;42.126;24.752;2024-03-29T06:08:54;14.77;;;2.58;;
65174;SDS011;51761;42.126;24.752;2024-03-29T06:11:20;9.35;;;2.03;;
65174;SDS011;51761;42.126;24.752;2024-03-29T06:13:45;11.50;;;2.33;;
65174;SDS011;51761;42.126;24.752;2024-03-29T06:16:19;12.00;;;2.78;;
65174;SDS011;51761;42.126;24.752;2024-03-29T06:19:03;9.23;;;2.28;;
65174;SDS011;51761;42.126;24.752;2024-03-29T06:21:29;10.45;;;2.45;;
65174;SDS011;51761;42.126;24.752;2024-03-29T06:23:57;8.27;;;1.92;;
65174;SDS011;51761;42.126;24.752;2024-03-29T06:26:22;7.28;;;1.65;;
65174;SDS011;51761;42.126;24.752;2024-03-29T06:28:48;7.63;;;1.63;;
65174;SDS011;51761;42.126;24.752;2024-03-29T06:31:13;7.30;;;1.65;;
65174;SDS011;51761;42.126;24.752;2024-03-29T06:33:38;12.57;;;2.50;;
65174;SDS011;51761;42.126;24.752;2024-03-29T06:36:04;8.70;;;1.48;;
65174;SDS011;51761;42.126;24.752;2024-03-29T06:38:30;13.60;;;1.75;;
65174;SDS011;51761;42.126;24.752;2024-03-29T06:40:55;8.95;;;1.70;;
65174;SDS011;51761;42.126;24.752;2024-03-29T06:43:20;3.75;;;1.13;;
65174;SDS011;51761;42.126;24.752;2024-03-29T06:45:46;10.75;;;1.67;;
65174;SDS011;51761;42.126;24.752;2024-03-29T06:48:11;17.17;;;2.95;;
65174;SDS011;51761;42.126;24.752;2024-03-29T06:50:37;13.40;;;2.60;;
65174;SDS011;51761;42.126;24.752;2024-03-29T06:53:02;4.85;;;1.80;;
65174;SDS011;51761;42.126;24.752;2024-03-29T06:55:29;13.43;;;1.70;;
65174;SDS011;51761;42.126;24.752;2024-03-29T06:57:54;7.60;;;1.67;;
65174;SDS011;51761;42.126;24.752;2024-03-29T07:00:19;11.93;;;2.33;;
65174;SDS011;51761;42.126;24.752;2024-03-29T07:02:45;7.07;;;1.20;;
65174;SDS011;51761;42.126;24.752;2024-03-29T07:05:10;4.88;;;1.77;;
65174;SDS011;51761;42.126;24.752;2024-03-29T07:07:36;7.95;;;1.33;;
65174;SDS011;51761;42.126;24.752;2024-03-29T07:10:02;6.45;;;1.50;;
65174;SDS011;51761;42.126;24.752;2024-03-29T07:12:27;12.32;;;2.17;;
65174;SDS011;51761;42.126;24.752;2024-03-29T07:14:53;8.88;;;2.15;;
65174;SDS011;51761;42.126;24.752;2024-03-29T07:17:18;12.18;;;2.00;;
65174;SDS011;51761;42.126;24.752;2024-03-29T07:19:43;9.02;;;1.55;;
65174;SDS011;51761;42.126;24.752;2024-03-29T07:22:08;7.78;;;2.08;;
65174;SDS011;51761;42.126;24.752;2024-03-29T07:24:34;5.35;;;1.98;;
65174;SDS011;51761;42.126;24.752;2024-03-29T07:26:59;9.85;;;1.85;;
65174;SDS011;51761;42.126;24.752;2024-03-29T07:29:24;9.80;;;2.47;;
65174;SDS011;51761;42.126;24.752;2024-03-29T07:31:50;4.93;;;1.48;;
65174;SDS011;51761;42.126;24.752;2024-03-29T07:34:15;8.40;;;1.58;;
65174;SDS011;51761;42.126;24.752;2024-03-29T07:36:40;4.57;;;2.03;;
65174;SDS011;51761;42.126;24.752;2024-03-29T07:39:06;10.63;;;3.30;;
65174;SDS011;51761;42.126;24.752;2024-03-29T07:41:31;4.53;;;1.70;;
65174;SDS011;51761;42.126;24.752;2024-03-29T07:43:57;13.93;;;2.67;;
65174;SDS011;51761;42.126;24.752;2024-03-29T07:46:28;4.07;;;1.70;;
65174;SDS011;51761;42.126;24.752;2024-03-29T07:48:54;4.65;;;1.80;;
65174;SDS011;51761;42.126;24.752;2024-03-29T07:51:19;8.02;;;2.83;;
65174;SDS011;51761;42.126;24.752;2024-03-29T07:53:45;7.25;;;1.73;;
65174;SDS011;51761;42.126;24.752;2024-03-29T07:56:10;9.88;;;1.38;;
65174;SDS011;51761;42.126;24.752;2024-03-29T07:58:35;11.65;;;2.63;;
65174;SDS011;51761;42.126;24.752;2024-03-29T08:01:01;4.82;;;1.52;;
65174;SDS011;51761;42.126;24.752;2024-03-29T08:03:26;6.60;;;1.73;;
65174;SDS011;51761;42.126;24.752;2024-03-29T08:05:58;4.13;;;1.40;;
65174;SDS011;51761;42.126;24.752;2024-03-29T08:08:24;6.63;;;1.20;;
65174;SDS011;51761;42.126;24.752;2024-03-29T08:10:50;12.20;;;1.73;;
65174;SDS011;51761;42.126;24.752;2024-03-29T08:13:15;8.82;;;1.50;;
65174;SDS011;51761;42.126;24.752;2024-03-29T08:15:42;3.42;;;0.90;;
65174;SDS011;51761;42.126;24.752;2024-03-29T08:18:08;4.60;;;1.70;;
65174;SDS011;51761;42.126;24.752;2024-03-29T08:20:33;6.38;;;1.42;;
65174;SDS011;51761;42.126;24.752;2024-03-29T08:22:59;2.70;;;1.23;;
65174;SDS011;51761;42.126;24.752;2024-03-29T08:25:24;8.55;;;1.80;;
65174;SDS011;51761;42.126;24.752;2024-03-29T08:27:52;5.80;;;1.05;;
65174;SDS011;51761;42.126;24.752;2024-03-29T08:30:25;4.45;;;1.17;;
65174;SDS011;51761;42.126;24.752;2024-03-29T08:32:50;5.40;;;1.80;;
65174;SDS011;51761;42.126;24.752;2024-03-29T08:35:18;8.98;;;1.80;;
65174;SDS011;51761;42.126;24.752;2024-03-29T08:37:43;2.65;;;1.08;;
65174;SDS011;51761;42.126;24.752;2024-03-29T08:40:08;9.30;;;1.27;;
65174;SDS011;51761;42.126;24.752;2024-03-29T08:42:34;7.72;;;1.73;;
65174;SDS011;51761;42.126;24.752;2024-03-29T08:45:02;4.50;;;1.35;;
65174;SDS011;51761;42.126;24.752;2024-03-29T08:47:28;9.82;;;1.58;;
65174;SDS011;51761;42.126;24.752;2024-03-29T08:49:53;5.53;;;1.15;;
65174;SDS011;51761;42.126;24.752;2024-03-29T08:52:19;3.92;;;1.00;;
65174;SDS011;51761;42.126;24.752;2024-03-29T08:54:44;3.50;;;1.20;;
65174;SDS011;51761;42.126;24.752;2024-03-29T08:57:09;7.47;;;1.40;;
65174;SDS011;51761;42.126;24.752;2024-03-29T08:59:35;3.90;;;1.25;;
65174;SDS011;51761;42.126;24.752;2024-03-29T09:02:04;3.05;;;0.98;;
65174;SDS011;51761;42.126;24.752;2024-03-29T09:04:31;9.82;;;1.33;;
65174;SDS011;51761;42.126;24.752;2024-03-29T09:06:58;3.60;;;1.10;;
65174;SDS011;51761;42.126;24.752;2024-03-29T09:09:24;2.47;;;1.10;;
65174;SDS011;51761;42.126;24.752;2024-03-29T09:11:49;4.40;;;1.05;;
65174;SDS011;51761;42.126;24.752;2024-03-29T09:14:14;6.65;;;1.67;;
